createdAt,value
2022-12-12T00:01:22.954Z,56.10
2022-12-12T00:03:51.408Z,48.93
2022-12-12T00:06:19.717Z,51.53
2022-12-12T00:08:47.759Z,48.80
2022-12-12T00:11:15.991Z,57.33
2022-12-12T00:13:44.052Z,48.60
2022-12-12T00:16:13.948Z,51.33
2022-12-12T00:18:42.634Z,51.80
2022-12-12T00:21:16.131Z,43.07
2022-12-12T00:23:44.651Z,51.47
2022-12-12T00:26:17.215Z,48.93
2022-12-12T00:28:45.284Z,52.33
2022-12-12T00:31:15.231Z,47.23
2022-12-12T00:33:44.922Z,52.10
2022-12-12T00:36:13.196Z,49.57
2022-12-12T00:38:41.157Z,54.07
2022-12-12T00:41:09.449Z,54.07
2022-12-12T00:43:37.415Z,55.27
2022-12-12T00:46:05.827Z,49.37
2022-12-12T00:48:36.366Z,53.27
2022-12-12T00:51:09.435Z,54.27
2022-12-12T00:53:37.816Z,53.33
2022-12-12T00:56:06.586Z,56.10
2022-12-12T00:58:34.880Z,55.97
2022-12-12T01:01:08.807Z,57.73
2022-12-12T01:03:40.746Z,51.70
2022-12-12T01:06:09.244Z,60.47
2022-12-12T01:08:37.911Z,54.63
2022-12-12T01:11:06.611Z,54.00
2022-12-12T01:13:35.358Z,53.33
2022-12-12T01:16:03.599Z,56.47
2022-12-12T01:18:31.675Z,54.43
2022-12-12T01:21:01.344Z,60.27
2022-12-12T01:23:29.566Z,55.60
2022-12-12T01:26:01.873Z,53.60
2022-12-12T01:28:29.881Z,56.97
2022-12-12T01:30:57.966Z,55.87
2022-12-12T01:33:26.044Z,59.57
2022-12-12T01:35:54.078Z,59.87
2022-12-12T01:38:24.663Z,60.73
2022-12-12T01:40:53.175Z,65.23
2022-12-12T01:43:24.187Z,61.80
2022-12-12T01:46:37.968Z,62.40
2022-12-12T01:49:14.287Z,67.40
2022-12-12T01:51:44.017Z,70.60
2022-12-12T01:54:26.543Z,66.50
2022-12-12T01:56:55.780Z,74.20
2022-12-12T01:59:26.836Z,74.47
2022-12-12T02:01:56.819Z,76.80
2022-12-12T02:04:25.968Z,88.97
2022-12-12T02:06:55.466Z,79.47
2022-12-12T02:09:26.839Z,73.80
2022-12-12T02:11:57.204Z,64.40
2022-12-12T02:14:28.620Z,63.53
2022-12-12T02:17:27.340Z,55.43
2022-12-12T02:20:28.691Z,54.43
2022-12-12T02:23:27.893Z,51.60
2022-12-12T02:26:37.368Z,50.20
2022-12-12T02:29:35.470Z,56.17
2022-12-12T02:32:09.717Z,57.40
2022-12-12T02:34:47.968Z,55.20
2022-12-12T02:37:22.174Z,60.93
2022-12-12T02:39:59.633Z,59.77
2022-12-12T02:42:33.122Z,54.73
2022-12-12T02:45:08.117Z,59.70
2022-12-12T02:47:42.597Z,56.13
2022-12-12T02:50:14.713Z,59.60
2022-12-12T02:52:44.417Z,56.77
2022-12-12T02:55:12.842Z,59.30
2022-12-12T02:57:42.144Z,64.50
2022-12-12T03:00:12.417Z,63.13
2022-12-12T03:03:19.528Z,57.63
2022-12-12T03:06:26.047Z,62.50
2022-12-12T03:09:05.858Z,61.50
2022-12-12T03:11:46.099Z,66.37
2022-12-12T03:14:22.529Z,63.77
2022-12-12T03:17:01.121Z,62.73
2022-12-12T03:19:35.441Z,62.13
2022-12-12T03:22:10.961Z,57.40
2022-12-12T03:24:49.595Z,57.83
2022-12-12T03:27:24.395Z,57.23
2022-12-12T03:29:56.616Z,58.13
2022-12-12T03:32:28.772Z,54.93
2022-12-12T03:35:04.499Z,52.97
2022-12-12T03:37:34.971Z,54.63
2022-12-12T03:40:07.013Z,53.77
2022-12-12T03:42:41.908Z,51.13
2022-12-12T03:45:16.300Z,58.77
2022-12-12T03:47:50.739Z,52.97
2022-12-12T03:50:22.086Z,59.13
2022-12-12T03:52:55.875Z,57.73
2022-12-12T03:55:28.836Z,56.47
2022-12-12T03:58:01.334Z,62.03
2022-12-12T04:00:31.905Z,59.37
2022-12-12T04:03:06.860Z,58.33
2022-12-12T04:06:03.046Z,56.23
2022-12-12T04:08:31.790Z,59.23
2022-12-12T04:11:24.812Z,55.63
2022-12-12T04:14:05.324Z,57.57
2022-12-12T04:16:37.888Z,55.80
2022-12-12T04:19:13.943Z,60.23
2022-12-12T04:22:08.450Z,59.10
2022-12-12T04:24:42.109Z,60.33
2022-12-12T04:27:16.075Z,70.63
2022-12-12T04:29:50.373Z,64.30
2022-12-12T04:32:23.935Z,63.73
2022-12-12T04:34:55.551Z,71.57
2022-12-12T04:37:28.791Z,61.83
2022-12-12T04:40:00.899Z,64.53
2022-12-12T04:42:32.894Z,64.53
2022-12-12T04:45:06.367Z,61.47
2022-12-12T04:47:37.547Z,62.87
2022-12-12T04:50:08.068Z,67.57
2022-12-12T04:52:39.734Z,58.60
2022-12-12T04:55:14.649Z,66.33
2022-12-12T04:57:45.760Z,63.77
2022-12-12T05:00:15.323Z,69.13
2022-12-12T05:02:50.716Z,58.80
2022-12-12T05:05:22.502Z,63.07
2022-12-12T05:07:56.161Z,67.57
2022-12-12T05:10:25.197Z,69.93
2022-12-12T05:12:59.938Z,62.60
2022-12-12T05:15:29.065Z,68.73
2022-12-12T05:18:01.011Z,60.53
2022-12-12T05:20:29.167Z,68.90
2022-12-12T05:22:58.571Z,62.40
2022-12-12T05:25:26.935Z,62.83
2022-12-12T05:27:54.932Z,63.07
2022-12-12T05:30:23.183Z,59.53
2022-12-12T05:32:51.598Z,60.70
2022-12-12T05:35:20.204Z,63.40
2022-12-12T05:37:51.728Z,62.37
2022-12-12T05:40:23.248Z,61.83
2022-12-12T05:42:51.525Z,60.03
2022-12-12T05:45:19.739Z,61.77
2022-12-12T05:47:47.769Z,72.03
2022-12-12T05:50:15.733Z,64.03
2022-12-12T05:52:43.674Z,61.60
2022-12-12T05:55:12.628Z,59.63
2022-12-12T05:57:42.111Z,63.83
2022-12-12T06:00:11.276Z,67.03
2022-12-12T06:02:39.457Z,68.63
2022-12-12T06:05:07.960Z,66.67
2022-12-12T06:07:36.000Z,67.37
2022-12-12T06:10:04.042Z,66.03
2022-12-12T06:12:32.002Z,72.33
2022-12-12T06:15:01.301Z,76.10
2022-12-12T06:17:33.088Z,73.50
2022-12-12T06:20:01.625Z,74.77
2022-12-12T06:22:29.595Z,73.83
2022-12-12T06:24:57.544Z,80.70
2022-12-12T06:27:25.547Z,71.03
2022-12-12T06:29:53.486Z,73.03
2022-12-12T06:32:22.806Z,75.37
2022-12-12T06:34:50.818Z,78.63
2022-12-12T06:37:19.006Z,75.03
2022-12-12T06:39:47.797Z,71.93
2022-12-12T06:42:15.753Z,75.47
2022-12-12T06:44:43.885Z,79.90
2022-12-12T06:47:11.903Z,82.17
2022-12-12T06:49:41.360Z,78.43
2022-12-12T06:52:09.346Z,82.27
2022-12-12T06:54:37.665Z,121.03
2022-12-12T06:57:05.759Z,96.77
2022-12-12T06:59:33.729Z,92.43
2022-12-12T07:02:02.191Z,77.30
2022-12-12T07:04:30.227Z,80.43
2022-12-12T07:06:59.682Z,81.67
2022-12-12T07:09:28.369Z,88.00
2022-12-12T07:11:56.409Z,86.50
2022-12-12T07:14:24.394Z,86.47
2022-12-12T07:16:52.369Z,82.70
2022-12-12T07:19:20.356Z,81.63
2022-12-12T07:21:48.354Z,88.47
2022-12-12T07:24:17.733Z,87.87
2022-12-12T07:26:45.672Z,79.80
2022-12-12T07:29:13.672Z,77.40
2022-12-12T07:31:41.686Z,73.83
2022-12-12T07:34:09.791Z,82.30
2022-12-12T07:36:37.790Z,74.53
2022-12-12T07:39:05.879Z,80.40
2022-12-12T07:41:35.218Z,79.37
2022-12-12T07:44:03.266Z,78.47
2022-12-12T07:46:31.271Z,78.50
2022-12-12T07:48:59.482Z,74.67
2022-12-12T07:51:27.630Z,80.73
2022-12-12T07:53:55.694Z,76.33
2022-12-12T07:56:23.767Z,84.77
2022-12-12T07:58:55.561Z,81.67
2022-12-12T08:01:25.721Z,80.10
2022-12-12T08:03:54.837Z,86.03
2022-12-12T08:06:24.432Z,97.90
2022-12-12T08:08:53.768Z,86.60
2022-12-12T08:11:23.682Z,84.23
2022-12-12T08:13:53.780Z,83.13
2022-12-12T08:16:23.744Z,82.93
2022-12-12T08:18:54.178Z,78.67
2022-12-12T08:21:26.210Z,79.27
2022-12-12T08:23:57.721Z,70.30
2022-12-12T08:26:26.081Z,75.97
2022-12-12T08:28:56.060Z,78.57
2022-12-12T08:31:24.780Z,77.30
2022-12-12T08:33:53.403Z,70.43
2022-12-12T08:36:23.524Z,75.73
2022-12-12T08:38:52.470Z,72.80
2022-12-12T08:41:20.873Z,71.33
2022-12-12T08:43:49.717Z,71.67
2022-12-12T08:46:20.747Z,68.10
2022-12-12T08:48:49.611Z,71.50
2022-12-12T08:51:18.926Z,70.50
2022-12-12T08:53:48.128Z,65.23
2022-12-12T08:56:16.944Z,62.50
2022-12-12T08:58:46.547Z,66.20
2022-12-12T09:01:16.497Z,72.80
2022-12-12T09:03:46.327Z,65.53
2022-12-12T09:06:15.208Z,77.23
2022-12-12T09:08:44.146Z,71.30
2022-12-12T09:11:12.891Z,69.90
2022-12-12T09:13:41.687Z,70.03
2022-12-12T09:16:10.556Z,68.30
2022-12-12T09:18:44.573Z,67.00
2022-12-12T09:21:17.630Z,64.43
2022-12-12T09:23:46.171Z,65.77
2022-12-12T09:26:14.357Z,68.70
2022-12-12T09:28:42.569Z,73.20
2022-12-12T09:31:12.948Z,73.60
2022-12-12T09:33:42.889Z,72.53
2022-12-12T09:36:13.154Z,72.13
2022-12-12T09:38:42.863Z,79.37
2022-12-12T09:41:17.633Z,72.90
2022-12-12T09:43:51.512Z,80.30
2022-12-12T09:46:29.112Z,76.10
2022-12-12T09:49:03.737Z,75.60
2022-12-12T09:51:31.887Z,80.90
2022-12-12T09:54:01.589Z,90.67
2022-12-12T09:56:37.123Z,85.83
2022-12-12T09:59:10.044Z,84.60
2022-12-12T10:01:44.337Z,87.10
2022-12-12T10:04:21.347Z,95.00
2022-12-12T10:06:56.507Z,93.03
2022-12-12T10:09:39.991Z,88.10
2022-12-12T10:12:12.390Z,92.33
2022-12-12T10:14:44.763Z,94.67
2022-12-12T10:17:17.935Z,88.30
2022-12-12T10:19:50.225Z,98.93
2022-12-12T10:22:27.511Z,95.27
2022-12-12T10:25:03.751Z,91.17
2022-12-12T10:27:31.929Z,86.83
2022-12-12T10:30:08.243Z,87.53
2022-12-12T10:32:45.917Z,88.73
2022-12-12T10:35:26.411Z,87.33
2022-12-12T10:38:10.552Z,89.70
2022-12-12T10:40:52.984Z,88.73
2022-12-12T10:43:24.505Z,90.47
2022-12-12T10:46:16.941Z,89.33
2022-12-12T10:48:47.009Z,81.53
2022-12-12T10:51:18.603Z,90.13
2022-12-12T10:53:46.889Z,92.97
2022-12-12T10:56:21.703Z,81.20
2022-12-12T10:58:55.155Z,78.73
2022-12-12T11:01:52.244Z,74.67
2022-12-12T11:04:16.279Z,79.73
2022-12-12T11:06:47.955Z,82.07
2022-12-12T11:09:20.402Z,84.43
2022-12-12T11:12:01.181Z,98.70
2022-12-12T11:14:33.043Z,93.33
2022-12-12T11:17:01.110Z,85.87
2022-12-12T11:19:37.284Z,83.20
2022-12-12T11:22:05.709Z,74.47
2022-12-12T11:24:35.744Z,79.57
2022-12-12T11:27:07.752Z,77.60
2022-12-12T11:29:42.757Z,76.17
2022-12-12T11:32:15.530Z,78.60
2022-12-12T11:34:47.902Z,84.83
2022-12-12T11:37:18.136Z,73.77
2022-12-12T11:39:49.998Z,80.10
2022-12-12T11:42:26.603Z,72.97
2022-12-12T11:45:03.003Z,83.80
2022-12-12T11:47:38.447Z,83.73
2022-12-12T11:50:19.757Z,83.63
2022-12-12T11:52:49.226Z,92.47
2022-12-12T11:55:19.454Z,82.13
2022-12-12T11:58:08.998Z,81.00
2022-12-12T12:00:44.390Z,88.40
2022-12-12T12:03:37.833Z,82.93
2022-12-12T12:06:30.874Z,86.50
2022-12-12T12:09:29.649Z,79.57
2022-12-12T12:12:07.427Z,80.40
2022-12-12T12:15:00.157Z,79.13
2022-12-12T12:17:43.544Z,80.93
2022-12-12T12:20:22.741Z,82.37
2022-12-12T12:23:03.679Z,83.93
2022-12-12T12:25:38.442Z,81.23
2022-12-12T12:28:45.116Z,84.87
2022-12-12T12:31:23.880Z,90.10
2022-12-12T12:34:03.993Z,95.60
2022-12-12T12:36:41.789Z,90.00
2022-12-12T12:39:20.665Z,85.00
2022-12-12T12:42:10.020Z,86.03
2022-12-12T12:44:48.100Z,82.37
2022-12-12T12:47:28.049Z,96.13
2022-12-12T12:49:59.909Z,79.90
2022-12-12T12:52:33.483Z,92.67
2022-12-12T12:55:02.722Z,89.47
2022-12-12T12:57:35.302Z,78.50
2022-12-12T13:00:09.985Z,81.93
2022-12-12T13:02:49.783Z,80.60
2022-12-12T13:05:24.132Z,97.37
2022-12-12T13:07:58.838Z,93.90
2022-12-12T13:10:29.506Z,81.80
2022-12-12T13:13:02.401Z,87.57
2022-12-12T13:15:34.528Z,86.03
2022-12-12T13:18:06.251Z,92.07
2022-12-12T13:20:39.095Z,96.00
2022-12-12T13:23:20.950Z,88.40
2022-12-12T13:25:55.557Z,99.07
2022-12-12T13:28:30.107Z,96.30
2022-12-12T13:31:22.654Z,90.37
2022-12-12T13:33:56.548Z,95.63
2022-12-12T13:36:29.893Z,94.30
2022-12-12T13:39:01.109Z,81.63
2022-12-12T13:41:49.237Z,89.33
2022-12-12T13:44:34.597Z,84.03
2022-12-12T13:47:03.291Z,91.30
2022-12-12T13:49:46.316Z,86.33
2022-12-12T13:52:26.983Z,96.13
2022-12-12T13:55:18.107Z,83.73
2022-12-12T13:58:08.247Z,88.20
2022-12-12T14:00:36.707Z,80.57
2022-12-12T14:03:25.267Z,95.13
2022-12-12T14:05:55.826Z,97.07
2022-12-12T14:08:28.330Z,82.97
2022-12-12T14:11:00.692Z,87.03
2022-12-12T14:13:42.918Z,82.80
2022-12-12T14:16:22.259Z,81.13
2022-12-12T14:19:08.917Z,79.90
2022-12-12T14:21:47.679Z,86.00
2022-12-12T14:24:48.068Z,82.87
2022-12-12T14:27:16.474Z,88.00
2022-12-12T14:29:45.573Z,77.10
2022-12-12T14:32:33.073Z,88.73
2022-12-12T14:35:25.962Z,77.10
2022-12-12T14:38:05.049Z,74.77
2022-12-12T14:40:35.463Z,79.10
2022-12-12T14:43:19.174Z,77.30
2022-12-12T14:45:56.457Z,64.90
2022-12-12T14:48:27.353Z,71.27
2022-12-12T14:51:01.218Z,72.67
2022-12-12T14:53:33.527Z,69.10
2022-12-12T14:56:04.823Z,68.43
2022-12-12T14:58:37.895Z,71.80
2022-12-12T15:01:07.223Z,66.73
2022-12-12T15:03:39.023Z,75.47
2022-12-12T15:06:32.463Z,69.43
2022-12-12T15:09:12.332Z,66.47
2022-12-12T15:11:40.782Z,68.63
2022-12-12T15:14:20.066Z,76.50
2022-12-12T15:16:52.068Z,74.07
2022-12-12T15:19:24.285Z,75.30
2022-12-12T15:21:52.456Z,76.90
2022-12-12T15:24:24.245Z,72.40
2022-12-12T15:26:55.057Z,67.33
2022-12-12T15:29:26.117Z,75.53
2022-12-12T15:32:00.058Z,85.03
2022-12-12T15:34:34.263Z,95.97
2022-12-12T15:37:30.463Z,81.10
2022-12-12T15:40:17.761Z,84.93
2022-12-12T15:42:48.960Z,75.40
2022-12-12T15:45:21.320Z,83.50
2022-12-12T15:47:51.607Z,78.97
2022-12-12T15:50:21.609Z,78.37
2022-12-12T15:53:03.221Z,101.77
2022-12-12T15:55:33.687Z,78.17
2022-12-12T15:58:01.817Z,83.40
2022-12-12T16:00:36.246Z,80.13
2022-12-12T16:03:07.680Z,81.30
2022-12-12T16:05:38.179Z,87.87
2022-12-12T16:08:31.696Z,80.30
2022-12-12T16:11:03.549Z,87.23
2022-12-12T16:13:39.746Z,75.83
2022-12-12T16:16:34.482Z,71.73
2022-12-12T16:19:03.233Z,76.43
2022-12-12T16:21:32.116Z,78.80
2022-12-12T16:24:12.642Z,71.33
2022-12-12T16:26:41.940Z,71.83
2022-12-12T16:29:09.969Z,72.23
2022-12-12T16:31:38.051Z,71.83
2022-12-12T16:34:06.299Z,64.03
2022-12-12T16:36:41.422Z,66.67
2022-12-12T16:39:10.777Z,67.13
2022-12-12T16:41:38.849Z,70.97
2022-12-12T16:44:08.586Z,74.77
2022-12-12T16:46:36.540Z,69.70
2022-12-12T16:49:05.122Z,63.23
2022-12-12T16:51:35.327Z,70.53
2022-12-12T16:54:03.307Z,63.73
2022-12-12T16:56:31.298Z,63.33
2022-12-12T16:58:59.240Z,69.97
2022-12-12T17:01:28.615Z,61.00
2022-12-12T17:03:57.135Z,70.00
2022-12-12T17:06:25.127Z,76.40
2022-12-12T17:08:53.166Z,76.90
2022-12-12T17:11:21.138Z,75.43
2022-12-12T17:13:50.970Z,66.90
2022-12-12T17:16:24.171Z,74.90
2022-12-12T17:18:58.418Z,63.23
2022-12-12T17:21:26.568Z,61.80
2022-12-12T17:23:54.554Z,60.10
2022-12-12T17:26:23.221Z,73.67
2022-12-12T17:28:51.203Z,55.40
2022-12-12T17:31:19.210Z,56.30
2022-12-12T17:33:51.067Z,57.83
2022-12-12T17:36:20.891Z,55.03
2022-12-12T17:38:49.438Z,51.13
2022-12-12T17:41:17.426Z,48.40
2022-12-12T17:43:48.256Z,48.93
2022-12-12T17:46:19.228Z,45.80
2022-12-12T17:48:48.762Z,49.87
2022-12-12T17:51:21.957Z,50.87
2022-12-12T17:53:51.178Z,51.43
2022-12-12T17:56:20.812Z,54.00
2022-12-12T17:58:50.205Z,57.50
2022-12-12T18:01:20.711Z,51.23
2022-12-12T18:03:49.904Z,46.67
2022-12-12T18:06:20.345Z,43.53
2022-12-12T18:08:49.029Z,47.30
2022-12-12T18:11:19.082Z,50.87
2022-12-12T18:13:48.806Z,43.87
2022-12-12T18:16:18.699Z,52.90
2022-12-12T18:18:46.760Z,44.23
2022-12-12T18:21:43.289Z,45.30
2022-12-12T18:24:09.832Z,43.60
2022-12-12T18:26:37.893Z,44.60
2022-12-12T18:29:07.778Z,47.73
2022-12-12T18:31:36.442Z,47.70
2022-12-12T18:34:04.875Z,46.27
2022-12-12T18:36:33.580Z,44.53
2022-12-12T18:39:03.290Z,52.63
2022-12-12T18:41:33.361Z,48.57
2022-12-12T18:44:06.026Z,45.70
2022-12-12T18:46:40.315Z,54.93
2022-12-12T18:49:10.885Z,47.73
2022-12-12T18:51:39.027Z,53.80
2022-12-12T18:54:12.760Z,52.57
2022-12-12T18:56:44.494Z,50.57
2022-12-12T18:59:12.616Z,56.77
2022-12-12T19:01:40.660Z,52.37
2022-12-12T19:04:13.382Z,47.20
2022-12-12T19:06:43.142Z,53.23
2022-12-12T19:09:15.219Z,41.37
2022-12-12T19:11:44.962Z,42.73
2022-12-12T19:14:15.028Z,47.53
2022-12-12T19:16:43.264Z,46.13
2022-12-12T19:19:12.346Z,45.03
2022-12-12T19:21:41.112Z,49.73
2022-12-12T19:24:12.117Z,48.73
2022-12-12T19:26:41.740Z,44.00
2022-12-12T19:29:13.338Z,40.47
2022-12-12T19:31:41.547Z,38.57
2022-12-12T19:34:11.767Z,36.37
2022-12-12T19:36:40.733Z,35.83
2022-12-12T19:39:09.470Z,38.43
2022-12-12T19:41:37.934Z,43.10
2022-12-12T19:44:08.819Z,40.30
2022-12-12T19:46:38.207Z,40.73
2022-12-12T19:49:08.555Z,45.67
2022-12-12T19:51:39.245Z,35.80
2022-12-12T19:54:09.050Z,37.10
2022-12-12T19:56:40.664Z,34.43
2022-12-12T19:59:09.522Z,34.77
2022-12-12T20:01:39.365Z,29.00
2022-12-12T20:04:09.232Z,34.00
2022-12-12T20:06:44.644Z,35.23
2022-12-12T20:09:14.003Z,29.20
2022-12-12T20:11:43.293Z,30.17
2022-12-12T20:14:13.372Z,34.90
2022-12-12T20:16:42.703Z,29.80
2022-12-12T20:19:11.490Z,28.60
2022-12-12T20:24:32.259Z,29.70
2022-12-12T20:27:00.685Z,27.10
2022-12-12T20:29:28.875Z,31.00
2022-12-12T20:31:59.841Z,29.60
2022-12-12T20:34:28.745Z,27.03
2022-12-12T20:36:57.274Z,28.43
2022-12-12T20:39:26.127Z,30.50
2022-12-12T20:41:54.643Z,31.70
2022-12-12T20:44:24.111Z,34.17
2022-12-12T20:46:52.378Z,35.47
2022-12-12T20:49:23.973Z,27.57
2022-12-12T20:51:56.978Z,33.57
2022-12-12T20:54:26.216Z,32.10
2022-12-12T20:56:55.263Z,33.90
2022-12-12T20:59:23.747Z,31.10
2022-12-12T21:01:52.473Z,28.07
2022-12-12T21:04:22.154Z,32.73
2022-12-12T21:06:51.431Z,32.70
2022-12-12T21:09:25.529Z,32.13
2022-12-12T21:11:54.497Z,26.47
2022-12-12T21:14:22.516Z,28.97
2022-12-12T21:16:50.509Z,28.30
2022-12-12T21:19:19.737Z,28.37
2022-12-12T21:21:49.064Z,28.23
2022-12-12T21:24:18.370Z,30.53
2022-12-12T21:26:46.961Z,28.13
2022-12-12T21:29:15.420Z,34.83
2022-12-12T21:31:50.888Z,27.77
2022-12-12T21:34:21.397Z,28.70
2022-12-12T21:36:53.669Z,33.27
2022-12-12T21:39:23.180Z,27.53
2022-12-12T21:41:51.459Z,28.40
2022-12-12T21:44:19.855Z,26.90
2022-12-12T21:46:48.093Z,27.90
2022-12-12T21:49:26.471Z,28.73
2022-12-12T21:51:57.672Z,29.40
2022-12-12T21:54:26.594Z,30.10
2022-12-12T21:56:55.028Z,29.73
2022-12-12T21:59:23.563Z,29.20
2022-12-12T22:01:51.685Z,29.80
2022-12-12T22:04:19.790Z,27.07
2022-12-12T22:06:47.785Z,28.63
2022-12-12T22:09:17.154Z,28.80
2022-12-12T22:11:49.551Z,31.33
2022-12-12T22:14:21.364Z,28.00
2022-12-12T22:16:49.636Z,30.47
2022-12-12T22:19:18.388Z,30.83
2022-12-12T22:21:47.456Z,37.03
2022-12-12T22:24:17.786Z,37.37
2022-12-12T22:26:47.243Z,36.10
2022-12-12T22:29:16.730Z,35.37
2022-12-12T22:31:45.873Z,36.70
2022-12-12T22:34:15.675Z,31.47
2022-12-12T22:36:44.874Z,33.27
2022-12-12T22:39:17.697Z,32.67
2022-12-12T22:41:46.201Z,38.23
2022-12-12T22:44:16.691Z,34.00
2022-12-12T22:46:45.828Z,36.33
2022-12-12T22:49:19.347Z,33.17
2022-12-12T22:51:48.537Z,32.33
2022-12-12T22:54:18.088Z,28.77
2022-12-12T22:56:46.534Z,33.07
2022-12-12T22:59:15.364Z,31.47
2022-12-12T23:01:43.895Z,32.30
2022-12-12T23:04:14.017Z,31.97
2022-12-12T23:06:43.318Z,33.77
2022-12-12T23:09:15.320Z,28.93
2022-12-12T23:11:45.379Z,34.67
2022-12-12T23:14:15.317Z,32.10
2022-12-12T23:16:44.017Z,34.50
2022-12-12T23:19:15.117Z,31.37
2022-12-12T23:21:43.210Z,29.70
2022-12-12T23:24:11.544Z,25.60
2022-12-12T23:26:39.772Z,30.13
2022-12-12T23:29:10.669Z,31.20
2022-12-12T23:31:39.999Z,32.60
2022-12-12T23:34:10.595Z,34.30
2022-12-12T23:36:39.016Z,31.00
2022-12-12T23:39:11.739Z,33.43
2022-12-12T23:41:39.859Z,30.23
2022-12-12T23:44:09.821Z,31.80
2022-12-12T23:46:37.792Z,35.23
2022-12-12T23:49:08.234Z,32.97
2022-12-12T23:51:38.238Z,30.97
2022-12-12T23:54:07.760Z,27.47
2022-12-12T23:56:35.956Z,26.60
2022-12-12T23:59:04.110Z,30.83
